5OK1 weather

Claremore Regional Hospital Heliport
Claremore, Oklahoma, United States

Public forecast

Using degrees Fahrenheit for public forecast. Weather courtesy of forecast.io.

METAR (pilot weather report)

Closest report is Claremore Regional Airport, 6.3 nm (11.7 km) ESE. Retrieved 2019/04/23 23:35 UTC (0 seconds ago):

KGCM 232335Z AUTO 35005KT 10SM SCT025 BKN033 OVC055 16/13 A2997 RMK AO2

TAF (pilot weather forecast)

Closest forecast is Tulsa International Airport, 15.7 nm (29.1 km) WSW. Retrieved 2019/04/23 18:22 UTC (5 hours ago):

TAF KTUL 231720Z 2318/2418 01006KT P6SM VCSH SCT015 BKN050 TEMPO 2318/2322 4SM RA BKN008 FM240100 01006KT P6SM OVC015 FM240700 34005KT P6SM BKN010 FM241400 35006KT P6SM BKN015